This is the latest recevied weather packets stored in our database for station/object K7DC. If no packets are shown the sender has not sent any weather packets the latest 10 day(s).
| Time | Temp. | Humidity | Pressure | Rain* | Wind** | Luminosity | Snow |
|---|---|---|---|---|---|---|---|
| 1777233070 | 27.22° C | 21% | 1011.5 hPa | 0 mm | - | 1020 W/m² | - |
| 1777232767 | 26.67° C | 23% | 1011.4 hPa | 0 mm | - | 993 W/m² | - |
| 1777232465 | 27.22° C | 22% | 1011.6 hPa | 0 mm | - | 486 W/m² | - |
| 1777232162 | 27.78° C | 21% | 1011.8 hPa | 0 mm | - | 1084 W/m² | - |
| 1777231859 | 27.78° C | 20% | 1011.7 hPa | 0 mm | - | 1060 W/m² | - |
| 1777231556 | 27.78° C | 21% | 1011.6 hPa | 0 mm | - | 1057 W/m² | - |
| 1777231252 | 27.22° C | 21% | 1011.5 hPa | 0 mm | - | 1039 W/m² | - |
| 1777230948 | 27.78° C | 21% | 1011.6 hPa | 0 mm | - | 1010 W/m² | - |
| 1777230644 | 27.78° C | 20% | 1011.8 hPa | 0 mm | - | 981 W/m² | - |
| 1777230339 | 27.78° C | 19% | 1011.9 hPa | 0 mm | - | 977 W/m² | - |
| 1777230037 | 26.11° C | 23% | 1011.8 hPa | 0 mm | - | 806 W/m² | - |
| 1777229733 | 27.78° C | 23% | 1011.5 hPa | 0 mm | - | 209 W/m² | - |
| 1777229430 | 28.33° C | 23% | 1011.9 hPa | 0 mm | - | 1054 W/m² | - |
| 1777229127 | 27.78° C | 23% | 1012 hPa | 0 mm | - | 977 W/m² | - |
| 1777228824 | 27.22° C | 24% | 1011.8 hPa | 0 mm | - | 1039 W/m² | - |
| 1777228520 | 26.11° C | 26% | 1011.9 hPa | 0 mm | - | 990 W/m² | - |
| 1777228216 | 25.56° C | 26% | 1012 hPa | 0 mm | - | 947 W/m² | - |
| 1777227915 | 25.56° C | 26% | 1011.9 hPa | 0 mm | - | 929 W/m² | - |
| 1777227611 | 26.11° C | 26% | 1012.1 hPa | 0 mm | - | 910 W/m² | - |
| 1777227307 | 25.56° C | 26% | 1012.2 hPa | 0 mm | - | 899 W/m² | - |
| 1777227004 | 25.56° C | 27% | 1012.2 hPa | 0 mm | - | 889 W/m² | - |
| 1777226702 | 24.44° C | 29% | 1012.1 hPa | 0 mm | - | 881 W/m² | - |
| 1777226398 | 25.56° C | 27% | 1012.2 hPa | 0 mm | - | 870 W/m² | - |
| 1777226093 | 25.56° C | 27% | 1012.4 hPa | 0 mm | - | 863 W/m² | - |
| 1777225790 | 26.11° C | 26% | 1012.2 hPa | 0 mm | - | 855 W/m² | - |
* Rain latest hour (hover to see other rain measurements)
** Current wind speed in m/s (hover to see current wind gust speed)